sensor_id;sensor_type;location;lat;lon;timestamp;temperature;humidity
8172;DHT22;4127;47.908;10.850;2022-08-11T00:02:26;23.90;53.80
8172;DHT22;4127;47.908;10.850;2022-08-11T00:04:55;23.90;53.80
8172;DHT22;4127;47.908;10.850;2022-08-11T00:07:24;23.90;53.80
8172;DHT22;4127;47.908;10.850;2022-08-11T00:09:51;23.80;53.80
8172;DHT22;4127;47.908;10.850;2022-08-11T00:12:19;23.90;53.80
8172;DHT22;4127;47.908;10.850;2022-08-11T00:14:55;23.90;53.80
8172;DHT22;4127;47.908;10.850;2022-08-11T00:17:31;23.90;53.90
8172;DHT22;4127;47.908;10.850;2022-08-11T00:20:05;23.80;53.80
8172;DHT22;4127;47.908;10.850;2022-08-11T00:22:43;23.80;53.80
8172;DHT22;4127;47.908;10.850;2022-08-11T00:25:16;23.80;53.80
8172;DHT22;4127;47.908;10.850;2022-08-11T00:27:43;23.80;53.80
8172;DHT22;4127;47.908;10.850;2022-08-11T00:30:11;23.80;53.80
8172;DHT22;4127;47.908;10.850;2022-08-11T00:32:42;23.80;53.90
8172;DHT22;4127;47.908;10.850;2022-08-11T00:35:14;23.80;53.90
8172;DHT22;4127;47.908;10.850;2022-08-11T00:38:03;23.80;53.90
8172;DHT22;4127;47.908;10.850;2022-08-11T00:40:54;23.80;53.90
8172;DHT22;4127;47.908;10.850;2022-08-11T00:43:56;23.80;53.90
8172;DHT22;4127;47.908;10.850;2022-08-11T00:49:19;23.80;53.90
8172;DHT22;4127;47.908;10.850;2022-08-11T00:54:57;23.70;53.90
8172;DHT22;4127;47.908;10.850;2022-08-11T01:00:22;23.70;53.90
8172;DHT22;4127;47.908;10.850;2022-08-11T01:03:16;23.70;53.90
8172;DHT22;4127;47.908;10.850;2022-08-11T01:06:02;23.70;53.90
8172;DHT22;4127;47.908;10.850;2022-08-11T01:11:38;23.70;54.00
8172;DHT22;4127;47.908;10.850;2022-08-11T01:14:48;23.70;54.00
8172;DHT22;4127;47.908;10.850;2022-08-11T01:20:38;23.70;54.00
8172;DHT22;4127;47.908;10.850;2022-08-11T01:38:28;24.50;54.40
8172;DHT22;4127;47.908;10.850;2022-08-11T01:53:08;23.60;54.00
8172;DHT22;4127;47.908;10.850;2022-08-11T01:56:07;23.60;54.10
8172;DHT22;4127;47.908;10.850;2022-08-11T02:04:33;23.60;54.10
8172;DHT22;4127;47.908;10.850;2022-08-11T02:07:18;23.60;54.10
8172;DHT22;4127;47.908;10.850;2022-08-11T02:15:32;23.60;54.10
8172;DHT22;4127;47.908;10.850;2022-08-11T02:18:21;23.60;54.10
8172;DHT22;4127;47.908;10.850;2022-08-11T02:20:56;23.60;54.10
8172;DHT22;4127;47.908;10.850;2022-08-11T02:23:54;23.60;54.10
8172;DHT22;4127;47.908;10.850;2022-08-11T02:26:46;23.60;54.10
8172;DHT22;4127;47.908;10.850;2022-08-11T02:29:41;23.60;54.10
8172;DHT22;4127;47.908;10.850;2022-08-11T02:32:51;23.60;54.10
8172;DHT22;4127;47.908;10.850;2022-08-11T02:35:48;23.60;54.10
8172;DHT22;4127;47.908;10.850;2022-08-11T02:38:31;23.60;54.10
8172;DHT22;4127;47.908;10.850;2022-08-11T02:41:25;23.60;54.10
8172;DHT22;4127;47.908;10.850;2022-08-11T02:50:20;23.50;54.10
8172;DHT22;4127;47.908;10.850;2022-08-11T02:52:56;23.50;54.10
8172;DHT22;4127;47.908;10.850;2022-08-11T02:55:52;23.50;54.10
8172;DHT22;4127;47.908;10.850;2022-08-11T02:58:48;23.50;54.10
8172;DHT22;4127;47.908;10.850;2022-08-11T03:01:57;23.50;54.10
8172;DHT22;4127;47.908;10.850;2022-08-11T03:04:44;23.50;54.10
8172;DHT22;4127;47.908;10.850;2022-08-11T03:13:45;23.50;54.10
8172;DHT22;4127;47.908;10.850;2022-08-11T03:16:23;23.50;54.10
8172;DHT22;4127;47.908;10.850;2022-08-11T03:22:16;23.50;54.10
8172;DHT22;4127;47.908;10.850;2022-08-11T03:36:17;23.40;54.10
8172;DHT22;4127;47.908;10.850;2022-08-11T03:41:39;23.40;54.10
8172;DHT22;4127;47.908;10.850;2022-08-11T03:47:47;23.40;54.10
8172;DHT22;4127;47.908;10.850;2022-08-11T03:56:28;23.40;54.10
8172;DHT22;4127;47.908;10.850;2022-08-11T04:05:15;23.40;54.10
8172;DHT22;4127;47.908;10.850;2022-08-11T04:25:28;23.30;54.10
8172;DHT22;4127;47.908;10.850;2022-08-11T04:28:48;23.30;54.10
8172;DHT22;4127;47.908;10.850;2022-08-11T04:31:33;23.30;54.10
8172;DHT22;4127;47.908;10.850;2022-08-11T04:37:11;23.30;54.10
8172;DHT22;4127;47.908;10.850;2022-08-11T04:48:42;23.30;54.20
8172;DHT22;4127;47.908;10.850;2022-08-11T04:52:04;24.60;54.80
8172;DHT22;4127;47.908;10.850;2022-08-11T05:12:52;23.20;54.30
8172;DHT22;4127;47.908;10.850;2022-08-11T05:15:48;23.30;54.40
8172;DHT22;4127;47.908;10.850;2022-08-11T05:18:51;23.20;54.30
8172;DHT22;4127;47.908;10.850;2022-08-11T05:21:44;23.20;54.30
8172;DHT22;4127;47.908;10.850;2022-08-11T05:27:35;23.20;54.40
8172;DHT22;4127;47.908;10.850;2022-08-11T05:30:26;23.20;54.40
8172;DHT22;4127;47.908;10.850;2022-08-11T05:33:33;23.20;54.40
8172;DHT22;4127;47.908;10.850;2022-08-11T05:39:06;23.20;54.40
8172;DHT22;4127;47.908;10.850;2022-08-11T05:42:04;23.20;54.40
8172;DHT22;4127;47.908;10.850;2022-08-11T05:45:00;23.20;54.40
8172;DHT22;4127;47.908;10.850;2022-08-11T05:47:48;23.20;54.50
8172;DHT22;4127;47.908;10.850;2022-08-11T05:50:34;23.20;54.50
8172;DHT22;4127;47.908;10.850;2022-08-11T05:53:21;23.20;54.50
8172;DHT22;4127;47.908;10.850;2022-08-11T05:56:12;23.20;54.50
8172;DHT22;4127;47.908;10.850;2022-08-11T05:58:45;23.20;54.50
8172;DHT22;4127;47.908;10.850;2022-08-11T06:01:21;23.20;54.50
8172;DHT22;4127;47.908;10.850;2022-08-11T06:03:51;23.20;54.60
8172;DHT22;4127;47.908;10.850;2022-08-11T06:06:37;23.20;54.60
8172;DHT22;4127;47.908;10.850;2022-08-11T06:09:12;23.20;54.60
8172;DHT22;4127;47.908;10.850;2022-08-11T06:11:41;23.20;54.60
8172;DHT22;4127;47.908;10.850;2022-08-11T06:14:11;23.20;54.60
8172;DHT22;4127;47.908;10.850;2022-08-11T06:16:41;23.20;54.60
8172;DHT22;4127;47.908;10.850;2022-08-11T06:19:09;23.30;54.70
8172;DHT22;4127;47.908;10.850;2022-08-11T06:21:37;23.20;54.60
8172;DHT22;4127;47.908;10.850;2022-08-11T06:24:10;23.30;54.70
8172;DHT22;4127;47.908;10.850;2022-08-11T06:26:40;23.30;54.60
8172;DHT22;4127;47.908;10.850;2022-08-11T06:29:27;23.30;54.60
8172;DHT22;4127;47.908;10.850;2022-08-11T06:32:04;23.30;54.50
8172;DHT22;4127;47.908;10.850;2022-08-11T06:35:06;23.30;54.50
8172;DHT22;4127;47.908;10.850;2022-08-11T06:38:11;23.40;54.60
8172;DHT22;4127;47.908;10.850;2022-08-11T06:46:34;23.40;54.60
8172;DHT22;4127;47.908;10.850;2022-08-11T06:49:07;23.40;54.60
8172;DHT22;4127;47.908;10.850;2022-08-11T06:52:01;23.40;54.60
8172;DHT22;4127;47.908;10.850;2022-08-11T06:54:33;23.40;54.60
8172;DHT22;4127;47.908;10.850;2022-08-11T06:57:02;23.40;54.60
8172;DHT22;4127;47.908;10.850;2022-08-11T06:59:58;23.40;54.60
8172;DHT22;4127;47.908;10.850;2022-08-11T07:14:00;23.40;54.70
8172;DHT22;4127;47.908;10.850;2022-08-11T07:16:50;23.40;54.70
8172;DHT22;4127;47.908;10.850;2022-08-11T07:19:21;23.40;54.70
8172;DHT22;4127;47.908;10.850;2022-08-11T07:22:09;23.40;54.70
8172;DHT22;4127;47.908;10.850;2022-08-11T07:25:03;23.50;54.80
8172;DHT22;4127;47.908;10.850;2022-08-11T07:28:00;23.50;54.80
8172;DHT22;4127;47.908;10.850;2022-08-11T07:30:46;23.50;54.80
8172;DHT22;4127;47.908;10.850;2022-08-11T07:33:27;23.50;54.80
8172;DHT22;4127;47.908;10.850;2022-08-11T07:36:16;23.50;54.80
8172;DHT22;4127;47.908;10.850;2022-08-11T07:38:47;23.50;54.90
8172;DHT22;4127;47.908;10.850;2022-08-11T07:41:18;23.50;54.90
8172;DHT22;4127;47.908;10.850;2022-08-11T07:43:48;23.50;54.90
8172;DHT22;4127;47.908;10.850;2022-08-11T07:46:16;23.50;54.90
8172;DHT22;4127;47.908;10.850;2022-08-11T07:49:03;23.50;54.90
8172;DHT22;4127;47.908;10.850;2022-08-11T07:51:50;23.50;54.90
8172;DHT22;4127;47.908;10.850;2022-08-11T07:54:37;23.50;54.90
8172;DHT22;4127;47.908;10.850;2022-08-11T07:57:09;23.50;54.80
8172;DHT22;4127;47.908;10.850;2022-08-11T08:00:16;23.50;54.90
8172;DHT22;4127;47.908;10.850;2022-08-11T08:03:04;23.50;54.90
8172;DHT22;4127;47.908;10.850;2022-08-11T08:05:50;23.60;54.90
8172;DHT22;4127;47.908;10.850;2022-08-11T08:08:56;23.60;54.90
8172;DHT22;4127;47.908;10.850;2022-08-11T08:11:43;23.60;55.00
8172;DHT22;4127;47.908;10.850;2022-08-11T08:14:29;23.60;55.00
8172;DHT22;4127;47.908;10.850;2022-08-11T08:17:15;23.60;55.10
8172;DHT22;4127;47.908;10.850;2022-08-11T08:20:04;23.60;55.10
8172;DHT22;4127;47.908;10.850;2022-08-11T08:22:33;23.60;55.10
8172;DHT22;4127;47.908;10.850;2022-08-11T08:25:05;23.60;55.20
8172;DHT22;4127;47.908;10.850;2022-08-11T08:27:36;23.60;55.10
8172;DHT22;4127;47.908;10.850;2022-08-11T08:30:05;23.60;55.30
8172;DHT22;4127;47.908;10.850;2022-08-11T08:32:51;23.60;55.20
8172;DHT22;4127;47.908;10.850;2022-08-11T08:35:19;23.60;55.30
8172;DHT22;4127;47.908;10.850;2022-08-11T08:37:49;23.60;55.30
8172;DHT22;4127;47.908;10.850;2022-08-11T08:40:17;23.60;55.80
8172;DHT22;4127;47.908;10.850;2022-08-11T08:42:51;23.60;55.30
8172;DHT22;4127;47.908;10.850;2022-08-11T08:45:21;23.60;55.30
8172;DHT22;4127;47.908;10.850;2022-08-11T08:47:58;23.60;55.30
8172;DHT22;4127;47.908;10.850;2022-08-11T08:50:32;23.60;55.30
8172;DHT22;4127;47.908;10.850;2022-08-11T08:53:21;23.70;55.30
8172;DHT22;4127;47.908;10.850;2022-08-11T08:55:49;23.60;55.20
8172;DHT22;4127;47.908;10.850;2022-08-11T08:58:19;23.70;55.30
8172;DHT22;4127;47.908;10.850;2022-08-11T09:00:50;23.70;55.30
8172;DHT22;4127;47.908;10.850;2022-08-11T09:03:17;23.70;55.30
8172;DHT22;4127;47.908;10.850;2022-08-11T09:06:05;23.70;55.40
8172;DHT22;4127;47.908;10.850;2022-08-11T09:08:33;23.70;55.40
8172;DHT22;4127;47.908;10.850;2022-08-11T09:11:04;23.70;55.40
8172;DHT22;4127;47.908;10.850;2022-08-11T09:13:51;23.70;55.40
8172;DHT22;4127;47.908;10.850;2022-08-11T09:16:34;23.70;55.40
8172;DHT22;4127;47.908;10.850;2022-08-11T09:19:02;23.70;55.50
8172;DHT22;4127;47.908;10.850;2022-08-11T09:21:29;23.70;55.60
8172;DHT22;4127;47.908;10.850;2022-08-11T09:24:14;23.70;55.50
8172;DHT22;4127;47.908;10.850;2022-08-11T09:27:06;23.70;55.50
8172;DHT22;4127;47.908;10.850;2022-08-11T09:29:34;23.70;55.60
8172;DHT22;4127;47.908;10.850;2022-08-11T09:32:01;23.70;55.70
8172;DHT22;4127;47.908;10.850;2022-08-11T09:34:28;23.70;55.70
8172;DHT22;4127;47.908;10.850;2022-08-11T09:36:58;23.70;55.70
8172;DHT22;4127;47.908;10.850;2022-08-11T09:40:06;23.70;55.70
8172;DHT22;4127;47.908;10.850;2022-08-11T09:42:53;23.70;55.70
8172;DHT22;4127;47.908;10.850;2022-08-11T09:45:39;23.70;55.80
8172;DHT22;4127;47.908;10.850;2022-08-11T09:48:06;23.70;55.90
8172;DHT22;4127;47.908;10.850;2022-08-11T09:50:34;23.70;55.90
8172;DHT22;4127;47.908;10.850;2022-08-11T09:53:04;23.80;55.90
8172;DHT22;4127;47.908;10.850;2022-08-11T09:55:52;23.80;55.90
8172;DHT22;4127;47.908;10.850;2022-08-11T09:58:20;23.80;55.90
8172;DHT22;4127;47.908;10.850;2022-08-11T10:01:09;23.80;55.90
8172;DHT22;4127;47.908;10.850;2022-08-11T10:04:10;23.80;55.90
8172;DHT22;4127;47.908;10.850;2022-08-11T10:06:42;23.80;56.00
8172;DHT22;4127;47.908;10.850;2022-08-11T10:09:52;23.80;55.90
8172;DHT22;4127;47.908;10.850;2022-08-11T10:12:33;23.80;55.90
8172;DHT22;4127;47.908;10.850;2022-08-11T10:15:07;23.90;56.50
8172;DHT22;4127;47.908;10.850;2022-08-11T10:17:57;23.80;56.00
8172;DHT22;4127;47.908;10.850;2022-08-11T10:20:44;23.90;56.00
8172;DHT22;4127;47.908;10.850;2022-08-11T10:23:13;23.90;56.10
8172;DHT22;4127;47.908;10.850;2022-08-11T10:25:58;23.90;56.10
8172;DHT22;4127;47.908;10.850;2022-08-11T10:28:44;23.90;56.20
8172;DHT22;4127;47.908;10.850;2022-08-11T10:31:31;23.90;56.20
8172;DHT22;4127;47.908;10.850;2022-08-11T10:34:29;23.90;56.30
8172;DHT22;4127;47.908;10.850;2022-08-11T10:36:57;23.90;56.30
8172;DHT22;4127;47.908;10.850;2022-08-11T10:39:28;23.90;56.30
8172;DHT22;4127;47.908;10.850;2022-08-11T10:41:56;23.90;56.30
8172;DHT22;4127;47.908;10.850;2022-08-11T10:45:04;23.90;56.40
8172;DHT22;4127;47.908;10.850;2022-08-11T10:47:54;23.90;56.30
8172;DHT22;4127;47.908;10.850;2022-08-11T10:50:22;23.90;56.40
8172;DHT22;4127;47.908;10.850;2022-08-11T10:53:09;23.90;56.50
8172;DHT22;4127;47.908;10.850;2022-08-11T10:55:55;23.90;56.40
8172;DHT22;4127;47.908;10.850;2022-08-11T10:58:41;23.90;56.50
8172;DHT22;4127;47.908;10.850;2022-08-11T11:01:22;23.90;56.40
8172;DHT22;4127;47.908;10.850;2022-08-11T11:03:53;23.90;56.40
8172;DHT22;4127;47.908;10.850;2022-08-11T11:09:03;24.00;56.40
8172;DHT22;4127;47.908;10.850;2022-08-11T11:11:35;24.00;56.40
8172;DHT22;4127;47.908;10.850;2022-08-11T11:14:22;24.00;56.40
8172;DHT22;4127;47.908;10.850;2022-08-11T11:17:16;24.00;56.40
8172;DHT22;4127;47.908;10.850;2022-08-11T11:19:56;24.00;56.40
8172;DHT22;4127;47.908;10.850;2022-08-11T11:22:27;24.00;56.40
8172;DHT22;4127;47.908;10.850;2022-08-11T11:25:09;24.00;56.50
8172;DHT22;4127;47.908;10.850;2022-08-11T11:30:56;24.00;56.40
8172;DHT22;4127;47.908;10.850;2022-08-11T11:36:58;24.00;56.40
8172;DHT22;4127;47.908;10.850;2022-08-11T11:39:29;24.00;56.40
8172;DHT22;4127;47.908;10.850;2022-08-11T11:41:59;24.00;56.40
8172;DHT22;4127;47.908;10.850;2022-08-11T11:44:28;24.00;56.40
8172;DHT22;4127;47.908;10.850;2022-08-11T11:46:55;24.00;56.40
8172;DHT22;4127;47.908;10.850;2022-08-11T11:49:26;24.00;56.40
8172;DHT22;4127;47.908;10.850;2022-08-11T11:51:55;24.00;56.40
8172;DHT22;4127;47.908;10.850;2022-08-11T11:54:28;24.10;56.40
8172;DHT22;4127;47.908;10.850;2022-08-11T11:56:57;24.10;56.30
8172;DHT22;4127;47.908;10.850;2022-08-11T11:59:44;24.10;56.40
8172;DHT22;4127;47.908;10.850;2022-08-11T12:02:30;24.10;56.40
8172;DHT22;4127;47.908;10.850;2022-08-11T12:04:57;24.10;56.30
8172;DHT22;4127;47.908;10.850;2022-08-11T12:07:24;24.10;56.40
8172;DHT22;4127;47.908;10.850;2022-08-11T12:10:10;24.10;56.40
8172;DHT22;4127;47.908;10.850;2022-08-11T12:12:37;24.00;56.30
8172;DHT22;4127;47.908;10.850;2022-08-11T12:15:23;24.10;56.30
8172;DHT22;4127;47.908;10.850;2022-08-11T12:18:10;24.10;56.40
8172;DHT22;4127;47.908;10.850;2022-08-11T12:20:38;24.10;56.30
8172;DHT22;4127;47.908;10.850;2022-08-11T12:23:05;24.10;56.40
8172;DHT22;4127;47.908;10.850;2022-08-11T12:25:50;24.10;56.50
8172;DHT22;4127;47.908;10.850;2022-08-11T12:28:53;24.10;56.40
8172;DHT22;4127;47.908;10.850;2022-08-11T12:31:24;24.10;56.40
8172;DHT22;4127;47.908;10.850;2022-08-11T12:33:51;24.10;56.40
8172;DHT22;4127;47.908;10.850;2022-08-11T12:36:19;24.10;56.60
8172;DHT22;4127;47.908;10.850;2022-08-11T12:38:47;24.10;56.50
8172;DHT22;4127;47.908;10.850;2022-08-11T12:41:19;24.10;56.50
8172;DHT22;4127;47.908;10.850;2022-08-11T12:44:07;24.10;56.50
8172;DHT22;4127;47.908;10.850;2022-08-11T12:46:53;24.20;56.60
8172;DHT22;4127;47.908;10.850;2022-08-11T12:49:22;24.20;56.40
8172;DHT22;4127;47.908;10.850;2022-08-11T12:52:20;24.20;56.60
8172;DHT22;4127;47.908;10.850;2022-08-11T12:54:58;24.20;56.60
8172;DHT22;4127;47.908;10.850;2022-08-11T13:00:15;24.20;56.60
8172;DHT22;4127;47.908;10.850;2022-08-11T13:03:01;24.20;56.50
8172;DHT22;4127;47.908;10.850;2022-08-11T13:05:47;24.20;56.70
8172;DHT22;4127;47.908;10.850;2022-08-11T13:08:19;24.20;56.70
8172;DHT22;4127;47.908;10.850;2022-08-11T13:10:49;24.20;56.80
8172;DHT22;4127;47.908;10.850;2022-08-11T13:13:37;24.20;56.90
8172;DHT22;4127;47.908;10.850;2022-08-11T13:16:31;24.20;56.60
8172;DHT22;4127;47.908;10.850;2022-08-11T13:18:59;24.20;56.70
8172;DHT22;4127;47.908;10.850;2022-08-11T13:21:27;24.20;56.80
8172;DHT22;4127;47.908;10.850;2022-08-11T13:23:54;24.20;56.90
8172;DHT22;4127;47.908;10.850;2022-08-11T13:26:30;24.20;56.90
8172;DHT22;4127;47.908;10.850;2022-08-11T13:29:20;24.20;56.90
8172;DHT22;4127;47.908;10.850;2022-08-11T13:31:48;24.20;56.90
8172;DHT22;4127;47.908;10.850;2022-08-11T13:34:19;24.20;56.90
8172;DHT22;4127;47.908;10.850;2022-08-11T13:36:50;24.20;56.80
8172;DHT22;4127;47.908;10.850;2022-08-11T13:39:19;24.20;56.80
8172;DHT22;4127;47.908;10.850;2022-08-11T13:41:49;24.20;56.80
8172;DHT22;4127;47.908;10.850;2022-08-11T13:44:17;24.20;56.90
8172;DHT22;4127;47.908;10.850;2022-08-11T13:47:12;24.20;56.80
8172;DHT22;4127;47.908;10.850;2022-08-11T13:49:39;24.20;56.90
8172;DHT22;4127;47.908;10.850;2022-08-11T13:52:14;24.20;57.00
8172;DHT22;4127;47.908;10.850;2022-08-11T13:54:42;24.20;56.90
8172;DHT22;4127;47.908;10.850;2022-08-11T13:57:11;24.20;56.80
8172;DHT22;4127;47.908;10.850;2022-08-11T14:00:00;24.20;56.90
8172;DHT22;4127;47.908;10.850;2022-08-11T14:02:54;24.20;56.80
8172;DHT22;4127;47.908;10.850;2022-08-11T14:05:29;24.20;56.80
8172;DHT22;4127;47.908;10.850;2022-08-11T14:08:03;24.20;56.80
8172;DHT22;4127;47.908;10.850;2022-08-11T14:10:35;24.20;56.80
8172;DHT22;4127;47.908;10.850;2022-08-11T14:13:09;24.20;56.80
8172;DHT22;4127;47.908;10.850;2022-08-11T14:16:25;24.30;56.80
8172;DHT22;4127;47.908;10.850;2022-08-11T14:18:56;24.30;56.70
8172;DHT22;4127;47.908;10.850;2022-08-11T14:21:23;24.30;56.70
8172;DHT22;4127;47.908;10.850;2022-08-11T14:24:10;24.30;56.70
8172;DHT22;4127;47.908;10.850;2022-08-11T14:26:40;24.30;56.90
8172;DHT22;4127;47.908;10.850;2022-08-11T14:29:12;24.30;56.90
8172;DHT22;4127;47.908;10.850;2022-08-11T14:31:51;24.30;56.90
8172;DHT22;4127;47.908;10.850;2022-08-11T14:34:20;24.30;56.80
8172;DHT22;4127;47.908;10.850;2022-08-11T14:36:51;24.30;56.80
8172;DHT22;4127;47.908;10.850;2022-08-11T14:39:22;24.30;56.80
8172;DHT22;4127;47.908;10.850;2022-08-11T14:41:56;24.30;56.80
8172;DHT22;4127;47.908;10.850;2022-08-11T14:44:47;24.30;56.90
8172;DHT22;4127;47.908;10.850;2022-08-11T14:47:32;24.40;56.80
8172;DHT22;4127;47.908;10.850;2022-08-11T14:50:00;24.40;56.80
8172;DHT22;4127;47.908;10.850;2022-08-11T14:52:36;24.40;56.70
8172;DHT22;4127;47.908;10.850;2022-08-11T14:55:05;24.40;56.80
8172;DHT22;4127;47.908;10.850;2022-08-11T14:57:53;24.40;56.80
8172;DHT22;4127;47.908;10.850;2022-08-11T15:00:23;24.50;56.80
8172;DHT22;4127;47.908;10.850;2022-08-11T15:02:50;24.50;56.70
8172;DHT22;4127;47.908;10.850;2022-08-11T15:06:01;24.50;56.70
8172;DHT22;4127;47.908;10.850;2022-08-11T15:08:30;24.50;56.70
8172;DHT22;4127;47.908;10.850;2022-08-11T15:11:18;24.50;56.60
8172;DHT22;4127;47.908;10.850;2022-08-11T15:14:06;24.50;56.60
8172;DHT22;4127;47.908;10.850;2022-08-11T15:16:35;24.60;56.40
8172;DHT22;4127;47.908;10.850;2022-08-11T15:19:22;24.60;56.40
8172;DHT22;4127;47.908;10.850;2022-08-11T15:21:50;24.60;56.40
8172;DHT22;4127;47.908;10.850;2022-08-11T15:24:36;24.60;56.30
8172;DHT22;4127;47.908;10.850;2022-08-11T15:27:13;24.60;56.20
8172;DHT22;4127;47.908;10.850;2022-08-11T15:30:03;24.60;56.20
8172;DHT22;4127;47.908;10.850;2022-08-11T15:33:07;24.60;56.30
8172;DHT22;4127;47.908;10.850;2022-08-11T15:35:54;24.60;56.30
8172;DHT22;4127;47.908;10.850;2022-08-11T15:38:47;24.60;56.20
8172;DHT22;4127;47.908;10.850;2022-08-11T15:41:26;24.70;56.20
8172;DHT22;4127;47.908;10.850;2022-08-11T15:44:29;24.70;56.10
8172;DHT22;4127;47.908;10.850;2022-08-11T15:47:44;24.80;56.10
8172;DHT22;4127;47.908;10.850;2022-08-11T15:50:17;24.90;55.90
8172;DHT22;4127;47.908;10.850;2022-08-11T15:53:09;24.90;55.70
8172;DHT22;4127;47.908;10.850;2022-08-11T15:55:38;24.90;55.60
8172;DHT22;4127;47.908;10.850;2022-08-11T15:58:07;25.00;55.50
8172;DHT22;4127;47.908;10.850;2022-08-11T16:00:55;25.00;55.40
8172;DHT22;4127;47.908;10.850;2022-08-11T16:03:51;25.10;55.30
8172;DHT22;4127;47.908;10.850;2022-08-11T16:07:03;25.10;55.10
8172;DHT22;4127;47.908;10.850;2022-08-11T16:09:41;25.10;55.00
8172;DHT22;4127;47.908;10.850;2022-08-11T16:12:25;25.10;54.80
8172;DHT22;4127;47.908;10.850;2022-08-11T16:15:00;25.10;54.80
8172;DHT22;4127;47.908;10.850;2022-08-11T16:17:49;25.20;54.80
8172;DHT22;4127;47.908;10.850;2022-08-11T16:20:20;25.20;54.70
8172;DHT22;4127;47.908;10.850;2022-08-11T16:22:48;25.20;54.70
8172;DHT22;4127;47.908;10.850;2022-08-11T16:25:27;25.20;55.30
8172;DHT22;4127;47.908;10.850;2022-08-11T16:28:15;25.20;54.80
8172;DHT22;4127;47.908;10.850;2022-08-11T16:30:45;25.20;54.90
8172;DHT22;4127;47.908;10.850;2022-08-11T16:33:12;25.20;54.90
8172;DHT22;4127;47.908;10.850;2022-08-11T16:36:02;25.20;54.90
8172;DHT22;4127;47.908;10.850;2022-08-11T16:39:00;25.20;54.90
8172;DHT22;4127;47.908;10.850;2022-08-11T16:41:31;25.30;54.70
8172;DHT22;4127;47.908;10.850;2022-08-11T16:44:17;25.30;54.60
8172;DHT22;4127;47.908;10.850;2022-08-11T16:47:05;25.30;54.60
8172;DHT22;4127;47.908;10.850;2022-08-11T16:49:35;25.40;54.90
8172;DHT22;4127;47.908;10.850;2022-08-11T16:52:05;25.40;54.80
8172;DHT22;4127;47.908;10.850;2022-08-11T16:54:34;25.40;55.00
8172;DHT22;4127;47.908;10.850;2022-08-11T16:57:23;25.40;55.00
8172;DHT22;4127;47.908;10.850;2022-08-11T17:00:11;25.30;55.00
8172;DHT22;4127;47.908;10.850;2022-08-11T17:02:49;25.30;55.10
8172;DHT22;4127;47.908;10.850;2022-08-11T17:05:36;25.20;55.00
8172;DHT22;4127;47.908;10.850;2022-08-11T17:08:31;25.10;54.60
8172;DHT22;4127;47.908;10.850;2022-08-11T17:11:25;25.10;54.50
8172;DHT22;4127;47.908;10.850;2022-08-11T17:14:35;25.10;54.30
8172;DHT22;4127;47.908;10.850;2022-08-11T17:17:12;25.10;54.50
8172;DHT22;4127;47.908;10.850;2022-08-11T17:19:45;25.10;54.40
8172;DHT22;4127;47.908;10.850;2022-08-11T17:22:35;25.10;54.50
8172;DHT22;4127;47.908;10.850;2022-08-11T17:25:23;25.00;54.60
8172;DHT22;4127;47.908;10.850;2022-08-11T17:27:51;25.00;54.80
8172;DHT22;4127;47.908;10.850;2022-08-11T17:30:20;24.90;55.00
8172;DHT22;4127;47.908;10.850;2022-08-11T17:32:50;24.90;55.00
8172;DHT22;4127;47.908;10.850;2022-08-11T17:35:44;24.80;55.10
8172;DHT22;4127;47.908;10.850;2022-08-11T17:38:17;24.80;55.10
8172;DHT22;4127;47.908;10.850;2022-08-11T17:40:53;24.80;55.10
8172;DHT22;4127;47.908;10.850;2022-08-11T17:43:50;24.70;55.20
8172;DHT22;4127;47.908;10.850;2022-08-11T17:46:38;24.70;55.20
8172;DHT22;4127;47.908;10.850;2022-08-11T17:49:29;24.70;55.20
8172;DHT22;4127;47.908;10.850;2022-08-11T17:52:04;24.70;55.20
8172;DHT22;4127;47.908;10.850;2022-08-11T17:54:51;24.60;55.20
8172;DHT22;4127;47.908;10.850;2022-08-11T17:57:39;24.60;55.30
8172;DHT22;4127;47.908;10.850;2022-08-11T18:00:25;24.60;55.10
8172;DHT22;4127;47.908;10.850;2022-08-11T18:02:53;24.60;55.20
8172;DHT22;4127;47.908;10.850;2022-08-11T18:05:43;24.60;55.10
8172;DHT22;4127;47.908;10.850;2022-08-11T18:08:12;24.50;55.60
8172;DHT22;4127;47.908;10.850;2022-08-11T18:10:59;24.50;55.50
8172;DHT22;4127;47.908;10.850;2022-08-11T18:14:06;24.50;55.10
8172;DHT22;4127;47.908;10.850;2022-08-11T18:16:53;24.50;55.10
8172;DHT22;4127;47.908;10.850;2022-08-11T18:19:39;24.50;55.20
8172;DHT22;4127;47.908;10.850;2022-08-11T18:22:32;24.50;55.20
8172;DHT22;4127;47.908;10.850;2022-08-11T18:25:29;24.50;55.30
8172;DHT22;4127;47.908;10.850;2022-08-11T18:28:21;24.50;55.50
8172;DHT22;4127;47.908;10.850;2022-08-11T18:31:11;24.50;55.50
8172;DHT22;4127;47.908;10.850;2022-08-11T18:34:03;24.50;55.50
8172;DHT22;4127;47.908;10.850;2022-08-11T18:37:02;24.40;55.50
8172;DHT22;4127;47.908;10.850;2022-08-11T18:40:01;24.40;55.50
8172;DHT22;4127;47.908;10.850;2022-08-11T18:42:48;24.40;55.40
8172;DHT22;4127;47.908;10.850;2022-08-11T18:45:37;24.40;55.30
8172;DHT22;4127;47.908;10.850;2022-08-11T18:48:36;24.40;55.10
8172;DHT22;4127;47.908;10.850;2022-08-11T18:51:23;24.40;55.10
8172;DHT22;4127;47.908;10.850;2022-08-11T18:54:12;24.40;54.90
8172;DHT22;4127;47.908;10.850;2022-08-11T18:57:01;24.40;55.00
8172;DHT22;4127;47.908;10.850;2022-08-11T18:59:49;24.40;54.90
8172;DHT22;4127;47.908;10.850;2022-08-11T19:02:36;24.40;54.90
8172;DHT22;4127;47.908;10.850;2022-08-11T19:05:23;24.40;55.00
8172;DHT22;4127;47.908;10.850;2022-08-11T19:08:33;24.40;55.20
8172;DHT22;4127;47.908;10.850;2022-08-11T19:11:21;24.40;55.30
8172;DHT22;4127;47.908;10.850;2022-08-11T19:14:11;24.40;55.70
8172;DHT22;4127;47.908;10.850;2022-08-11T19:16:59;24.40;54.90
8172;DHT22;4127;47.908;10.850;2022-08-11T19:20:20;24.40;55.00
8172;DHT22;4127;47.908;10.850;2022-08-11T19:23:08;24.40;55.00
8172;DHT22;4127;47.908;10.850;2022-08-11T19:25:55;24.40;54.80
8172;DHT22;4127;47.908;10.850;2022-08-11T19:28:43;24.40;54.60
8172;DHT22;4127;47.908;10.850;2022-08-11T19:31:29;24.40;54.50
8172;DHT22;4127;47.908;10.850;2022-08-11T19:34:18;24.30;54.50
8172;DHT22;4127;47.908;10.850;2022-08-11T19:37:05;24.30;54.40
8172;DHT22;4127;47.908;10.850;2022-08-11T19:39:53;24.30;54.30
8172;DHT22;4127;47.908;10.850;2022-08-11T19:42:40;24.30;54.40
8172;DHT22;4127;47.908;10.850;2022-08-11T19:45:27;24.30;54.30
8172;DHT22;4127;47.908;10.850;2022-08-11T19:48:20;24.30;54.30
8172;DHT22;4127;47.908;10.850;2022-08-11T19:51:08;24.30;54.30
8172;DHT22;4127;47.908;10.850;2022-08-11T19:53:54;24.30;54.30
8172;DHT22;4127;47.908;10.850;2022-08-11T19:56:41;24.30;54.30
8172;DHT22;4127;47.908;10.850;2022-08-11T19:59:27;24.30;54.30
8172;DHT22;4127;47.908;10.850;2022-08-11T20:02:12;24.30;54.30
8172;DHT22;4127;47.908;10.850;2022-08-11T20:04:58;24.30;54.30
8172;DHT22;4127;47.908;10.850;2022-08-11T20:07:45;24.30;54.60
8172;DHT22;4127;47.908;10.850;2022-08-11T20:10:33;24.30;54.30
8172;DHT22;4127;47.908;10.850;2022-08-11T20:13:20;24.30;54.30
8172;DHT22;4127;47.908;10.850;2022-08-11T20:16:11;24.30;54.30
8172;DHT22;4127;47.908;10.850;2022-08-11T20:19:00;24.30;54.40
8172;DHT22;4127;47.908;10.850;2022-08-11T20:21:54;24.30;54.40